createdAt,value
2018-11-23T00:00:20.275Z,91.80
2018-11-23T00:02:49.559Z,91.80
2018-11-23T00:05:18.486Z,91.90
2018-11-23T00:07:47.551Z,91.90
2018-11-23T00:10:17.570Z,92.00
2018-11-23T00:12:46.440Z,92.00
2018-11-23T00:15:16.180Z,92.00
2018-11-23T00:17:44.722Z,92.00
2018-11-23T00:20:15.142Z,92.10
2018-11-23T00:22:43.946Z,92.20
2018-11-23T00:25:15.658Z,92.20
2018-11-23T00:27:44.239Z,92.10
2018-11-23T00:30:15.562Z,92.20
2018-11-23T00:32:44.582Z,92.20
2018-11-23T00:35:15.178Z,92.20
2018-11-23T00:37:44.380Z,92.20
2018-11-23T00:40:17.887Z,92.20
2018-11-23T00:42:46.427Z,92.30
2018-11-23T00:45:14.960Z,92.30
2018-11-23T00:47:44.465Z,92.40
2018-11-23T00:50:14.577Z,92.50
2018-11-23T00:52:43.678Z,92.30
2018-11-23T00:55:14.005Z,92.30
2018-11-23T00:57:42.688Z,92.30
2018-11-23T01:00:13.669Z,92.40
2018-11-23T01:02:42.500Z,92.40
2018-11-23T01:05:12.627Z,92.40
2018-11-23T01:07:41.968Z,92.40
2018-11-23T01:10:12.492Z,92.50
2018-11-23T01:12:41.467Z,92.80
2018-11-23T01:15:10.636Z,92.80
2018-11-23T01:17:39.179Z,92.60
2018-11-23T01:20:12.170Z,94.20
2018-11-23T01:22:41.214Z,93.80
2018-11-23T01:25:12.224Z,94.60
2018-11-23T01:27:41.790Z,94.90
2018-11-23T01:30:12.711Z,93.70
2018-11-23T01:32:41.295Z,94.30
2018-11-23T01:35:09.886Z,93.60
2018-11-23T01:37:38.430Z,93.00
2018-11-23T01:40:08.586Z,92.90
2018-11-23T01:42:37.138Z,92.90
2018-11-23T01:45:07.095Z,92.70
2018-11-23T01:47:35.635Z,92.60
2018-11-23T01:50:05.222Z,92.60
2018-11-23T01:52:33.744Z,92.70
2018-11-23T01:55:02.278Z,92.90
2018-11-23T01:57:30.901Z,92.70
2018-11-23T01:59:59.415Z,93.20
2018-11-23T02:02:27.938Z,93.20
2018-11-23T02:04:56.431Z,93.20
2018-11-23T02:07:24.988Z,92.90
2018-11-23T02:09:53.503Z,93.30
2018-11-23T02:12:22.028Z,93.30
2018-11-23T02:14:50.506Z,93.10
2018-11-23T02:17:21.896Z,92.80
2018-11-23T02:19:50.797Z,92.70
2018-11-23T02:22:19.416Z,92.70
2018-11-23T02:24:47.994Z,92.80
2018-11-23T02:27:16.987Z,92.70
2018-11-23T02:29:45.495Z,92.70
2018-11-23T02:32:14.096Z,92.70
2018-11-23T02:34:42.737Z,92.80
2018-11-23T02:37:11.319Z,92.80
2018-11-23T02:39:40.315Z,92.70
2018-11-23T02:42:08.816Z,92.70
2018-11-23T02:44:37.327Z,93.10
2018-11-23T02:47:06.256Z,93.40
2018-11-23T02:49:35.065Z,93.70
2018-11-23T02:52:03.558Z,93.10
2018-11-23T02:54:32.078Z,93.00
2018-11-23T02:57:00.571Z,93.00
2018-11-23T02:59:29.096Z,93.00
2018-11-23T03:01:57.594Z,92.80
2018-11-23T03:04:26.138Z,92.70
2018-11-23T03:06:54.630Z,92.80
2018-11-23T03:09:23.170Z,92.90
2018-11-23T03:11:51.677Z,93.10
2018-11-23T03:14:20.208Z,92.70
2018-11-23T03:16:48.691Z,92.50
2018-11-23T03:19:17.225Z,92.50
2018-11-23T03:21:45.735Z,92.60
2018-11-23T03:24:14.256Z,92.50
2018-11-23T03:26:42.771Z,93.20
2018-11-23T03:29:11.304Z,92.90
2018-11-23T03:31:39.791Z,92.70
2018-11-23T03:34:08.305Z,92.90
2018-11-23T03:36:36.806Z,95.80
2018-11-23T03:39:08.079Z,94.20
2018-11-23T03:41:36.838Z,93.70
2018-11-23T03:44:06.062Z,93.30
2018-11-23T03:46:34.693Z,93.00
2018-11-23T03:49:03.335Z,93.00
2018-11-23T03:51:31.845Z,93.80
2018-11-23T03:54:00.376Z,93.20
2018-11-23T03:56:28.882Z,93.20
2018-11-23T03:58:57.402Z,93.40
2018-11-23T04:01:25.905Z,93.10
2018-11-23T04:03:54.435Z,93.00
2018-11-23T04:06:22.970Z,92.90
2018-11-23T04:08:51.795Z,92.90
2018-11-23T04:11:20.329Z,93.80
2018-11-23T04:13:48.858Z,93.40
2018-11-23T04:16:17.376Z,93.70
2018-11-23T04:18:45.906Z,94.10
2018-11-23T04:21:14.445Z,95.70
2018-11-23T04:23:42.946Z,96.40
2018-11-23T04:26:11.471Z,95.00
2018-11-23T04:28:39.994Z,93.80
2018-11-23T04:31:08.516Z,93.80
2018-11-23T04:33:37.026Z,94.80
2018-11-23T04:36:05.686Z,94.40
2018-11-23T04:38:34.198Z,93.60
2018-11-23T04:41:02.743Z,93.30
2018-11-23T04:43:31.297Z,93.00
2018-11-23T04:45:59.845Z,92.80
2018-11-23T04:48:28.359Z,92.80
2018-11-23T04:50:56.894Z,93.10
2018-11-23T04:53:25.397Z,93.40
2018-11-23T04:55:54.274Z,93.40
2018-11-23T04:58:22.781Z,93.10
2018-11-23T05:00:51.315Z,92.10
2018-11-23T05:03:19.920Z,93.60
2018-11-23T05:05:48.450Z,93.30
2018-11-23T05:08:16.949Z,93.60
2018-11-23T05:10:45.472Z,93.00
2018-11-23T05:13:13.987Z,93.10
2018-11-23T05:15:42.516Z,92.60
2018-11-23T05:18:11.017Z,93.70
2018-11-23T05:20:39.550Z,93.00
2018-11-23T05:23:08.119Z,92.00
2018-11-23T05:25:36.658Z,94.90
2018-11-23T05:28:05.395Z,94.00
2018-11-23T05:30:33.910Z,94.30
2018-11-23T05:33:02.407Z,94.60
2018-11-23T05:35:30.938Z,93.70
2018-11-23T05:37:59.442Z,93.00
2018-11-23T05:40:28.007Z,92.80
2018-11-23T05:42:56.510Z,92.80
2018-11-23T05:45:25.032Z,92.80
2018-11-23T05:47:53.533Z,92.70
2018-11-23T05:50:23.627Z,92.70
2018-11-23T05:52:52.503Z,94.20
2018-11-23T05:55:21.318Z,94.70
2018-11-23T05:57:50.171Z,94.70
2018-11-23T06:00:27.569Z,95.70
2018-11-23T06:02:56.125Z,94.40
2018-11-23T06:05:24.751Z,93.90
2018-11-23T06:07:53.325Z,93.70
2018-11-23T06:10:22.452Z,94.00
2018-11-23T06:12:50.995Z,94.50
2018-11-23T06:15:20.946Z,93.70
2018-11-23T06:17:50.008Z,93.20
2018-11-23T06:20:20.471Z,92.90
2018-11-23T06:22:49.975Z,94.50
2018-11-23T06:25:38.507Z,94.60
2018-11-23T06:28:07.295Z,94.50
2018-11-23T06:30:35.836Z,94.00
2018-11-23T06:33:16.019Z,94.10
2018-11-23T06:35:44.546Z,94.30
2018-11-23T06:38:13.059Z,95.70
2018-11-23T06:40:41.571Z,95.80
2018-11-23T06:43:10.061Z,94.90
2018-11-23T06:45:41.469Z,93.80
2018-11-23T06:48:10.712Z,93.30
2018-11-23T06:50:41.993Z,93.80
2018-11-23T06:53:10.528Z,93.50
2018-11-23T06:55:39.131Z,93.20
2018-11-23T06:58:07.638Z,93.60
2018-11-23T07:00:37.003Z,93.10
2018-11-23T07:03:06.217Z,93.70
2018-11-23T07:05:35.538Z,93.50
2018-11-23T07:08:06.113Z,93.30
2018-11-23T07:10:35.238Z,93.90
2018-11-23T07:13:04.449Z,94.80
2018-11-23T07:15:33.641Z,95.70
2018-11-23T07:18:03.183Z,94.40
2018-11-23T07:20:32.325Z,94.00
2018-11-23T07:23:02.306Z,93.50
2018-11-23T07:25:32.271Z,93.60
2018-11-23T07:28:03.132Z,94.10
2018-11-23T07:30:32.647Z,95.60
2018-11-23T07:33:01.835Z,94.70
2018-11-23T07:35:31.032Z,94.20
2018-11-23T07:38:00.126Z,94.00
2018-11-23T07:40:42.954Z,94.30
2018-11-23T07:43:12.187Z,97.20
2018-11-23T07:45:41.332Z,96.00
2018-11-23T07:48:10.855Z,94.40
2018-11-23T07:50:40.526Z,94.20
2018-11-23T07:53:10.193Z,95.10
2018-11-23T07:55:39.953Z,94.50
2018-11-23T07:58:09.909Z,93.90
2018-11-23T08:00:39.083Z,93.80
2018-11-23T08:03:08.476Z,93.70
2018-11-23T08:05:37.681Z,93.50
2018-11-23T08:08:07.101Z,93.40
2018-11-23T08:10:35.569Z,95.40
2018-11-23T08:13:05.210Z,94.60
2018-11-23T08:15:34.608Z,95.10
2018-11-23T08:18:04.024Z,94.40
2018-11-23T08:20:33.540Z,95.30
2018-11-23T08:23:02.863Z,94.30
2018-11-23T08:25:31.916Z,94.00
2018-11-23T08:28:01.383Z,93.60
2018-11-23T08:30:30.943Z,93.50
2018-11-23T08:33:00.115Z,93.70
2018-11-23T08:35:30.231Z,93.60
2018-11-23T08:37:58.759Z,93.40
2018-11-23T08:40:28.144Z,93.30
2018-11-23T08:42:57.387Z,94.00
2018-11-23T08:45:27.173Z,95.50
2018-11-23T08:47:55.713Z,94.70
2018-11-23T08:50:25.824Z,94.30
2018-11-23T08:52:54.587Z,93.80
2018-11-23T08:55:23.361Z,93.60
2018-11-23T08:57:53.066Z,94.20
2018-11-23T09:00:23.024Z,94.30
2018-11-23T09:02:52.891Z,93.90
2018-11-23T09:05:21.425Z,93.50
2018-11-23T09:07:51.293Z,94.80
2018-11-23T09:10:23.234Z,94.40
2018-11-23T09:12:54.598Z,94.00
2018-11-23T09:15:23.161Z,95.20
2018-11-23T09:17:51.701Z,95.10
2018-11-23T09:20:20.596Z,95.50
2018-11-23T09:22:49.124Z,97.20
2018-11-23T09:25:19.083Z,95.50
2018-11-23T09:27:47.659Z,95.00
2018-11-23T09:30:19.636Z,94.20
2018-11-23T09:32:48.771Z,93.90
2018-11-23T09:35:17.314Z,94.40
2018-11-23T09:37:46.388Z,96.10
2018-11-23T09:40:16.545Z,96.50
2018-11-23T09:42:45.073Z,94.70
2018-11-23T09:45:16.769Z,94.20
2018-11-23T09:47:46.264Z,94.80
2018-11-23T09:50:16.389Z,95.60
2018-11-23T09:52:45.888Z,96.00
2018-11-23T09:55:14.475Z,97.00
2018-11-23T09:57:43.001Z,95.50
2018-11-23T10:00:22.592Z,95.90
2018-11-23T10:02:52.226Z,95.60
2018-11-23T10:05:21.315Z,95.10
2018-11-23T10:07:52.422Z,95.10
2018-11-23T10:10:21.914Z,94.40
2018-11-23T10:12:50.636Z,95.50
2018-11-23T10:15:19.949Z,96.10
2018-11-23T10:17:48.460Z,95.80
2018-11-23T10:20:26.312Z,97.50
2018-11-23T10:22:54.998Z,98.30
2018-11-23T10:25:24.970Z,97.50
2018-11-23T10:27:53.587Z,97.20
2018-11-23T10:30:23.730Z,97.90
2018-11-23T10:32:53.546Z,98.40
2018-11-23T10:35:22.115Z,97.90
2018-11-23T10:37:52.226Z,98.20
2018-11-23T10:40:22.073Z,97.60
2018-11-23T10:42:50.747Z,97.30
2018-11-23T10:45:21.857Z,98.50
2018-11-23T10:47:51.273Z,98.10
2018-11-23T10:50:22.179Z,98.70
2018-11-23T10:52:51.014Z,99.60
2018-11-23T10:55:21.682Z,99.40
2018-11-23T10:57:50.355Z,98.60
2018-11-23T11:00:24.511Z,98.90
2018-11-23T11:02:59.632Z,98.50
2018-11-23T11:05:29.939Z,98.50
2018-11-23T11:08:00.324Z,98.90
2018-11-23T11:10:28.859Z,99.60
2018-11-23T11:12:57.515Z,98.20
2018-11-23T11:15:26.091Z,99.10
2018-11-23T11:17:54.621Z,98.50
2018-11-23T11:20:23.201Z,98.20
2018-11-23T11:22:51.869Z,98.50
2018-11-23T11:25:20.463Z,98.60
2018-11-23T11:27:48.995Z,99.50
2018-11-23T11:30:18.510Z,99.00
2018-11-23T11:32:48.615Z,98.60
2018-11-23T11:35:17.173Z,99.20
2018-11-23T11:37:45.890Z,99.40
2018-11-23T11:40:16.070Z,99.60
2018-11-23T11:42:44.933Z,99.60
2018-11-23T11:45:14.883Z,99.90
2018-11-23T11:47:44.109Z,99.60
2018-11-23T11:50:13.441Z,99.40
2018-11-23T11:52:43.245Z,99.60
2018-11-23T11:55:14.095Z,98.70
2018-11-23T11:57:45.119Z,98.50
2018-11-23T12:00:17.015Z,99.40
2018-11-23T12:02:45.173Z,99.90
2018-11-23T12:05:14.238Z,99.30
2018-11-23T12:07:42.879Z,99.10
2018-11-23T12:10:14.396Z,98.80
2018-11-23T12:12:43.204Z,99.70
2018-11-23T12:15:12.611Z,99.60
2018-11-23T12:17:41.496Z,98.10
2018-11-23T12:20:13.089Z,99.50
2018-11-23T12:22:41.946Z,99.90
2018-11-23T12:25:10.807Z,99.90
2018-11-23T12:27:39.359Z,99.90
2018-11-23T12:30:10.223Z,99.90
2018-11-23T12:32:38.758Z,99.90
2018-11-23T12:35:08.848Z,99.90
2018-11-23T12:37:37.398Z,99.50
2018-11-23T12:40:07.398Z,99.90
2018-11-23T12:42:35.936Z,99.60
2018-11-23T12:45:05.222Z,99.90
2018-11-23T12:47:33.773Z,99.40
2018-11-23T12:50:02.289Z,99.90
2018-11-23T12:52:30.987Z,99.10
2018-11-23T12:54:59.486Z,98.80
2018-11-23T12:57:28.036Z,98.50
2018-11-23T12:59:56.552Z,99.90
2018-11-23T13:02:25.079Z,99.90
2018-11-23T13:04:53.604Z,99.90
2018-11-23T13:07:22.118Z,98.80
2018-11-23T13:09:50.630Z,98.60
2018-11-23T13:12:19.194Z,98.60
2018-11-23T13:14:47.756Z,99.90
2018-11-23T13:17:16.280Z,99.90
2018-11-23T13:19:44.815Z,99.70
2018-11-23T13:22:13.342Z,99.90
2018-11-23T13:24:41.862Z,99.90
2018-11-23T13:27:16.666Z,99.90
2018-11-23T13:29:46.373Z,99.40
2018-11-23T13:32:14.970Z,99.90
2018-11-23T13:34:43.444Z,99.10
2018-11-23T13:37:13.008Z,99.60
2018-11-23T13:39:41.497Z,99.60
2018-11-23T13:42:10.027Z,99.90
2018-11-23T13:44:38.495Z,99.60
2018-11-23T13:47:07.090Z,99.90
2018-11-23T13:49:35.571Z,99.90
2018-11-23T13:52:04.382Z,99.90
2018-11-23T13:54:33.014Z,99.90
2018-11-23T13:57:01.526Z,99.70
2018-11-23T13:59:30.035Z,99.80
2018-11-23T14:01:58.585Z,98.40
2018-11-23T14:04:27.086Z,99.80
2018-11-23T14:06:55.607Z,99.60
2018-11-23T14:09:24.165Z,99.90
2018-11-23T14:11:52.672Z,99.60
2018-11-23T14:14:21.170Z,98.80
2018-11-23T14:16:49.692Z,99.60
2018-11-23T14:19:18.248Z,99.80
2018-11-23T14:21:46.895Z,99.90
2018-11-23T14:24:15.424Z,99.90
2018-11-23T14:26:44.114Z,99.70
2018-11-23T14:29:12.768Z,99.30
2018-11-23T14:31:41.400Z,98.80
2018-11-23T14:34:09.965Z,99.90
2018-11-23T14:36:38.547Z,99.80
2018-11-23T14:39:08.628Z,99.90
2018-11-23T14:41:37.574Z,99.90
2018-11-23T14:44:06.976Z,99.90
2018-11-23T14:46:34.826Z,99.90
2018-11-23T14:49:03.359Z,99.90
2018-11-23T14:51:31.934Z,99.50
2018-11-23T14:54:00.466Z,99.90
2018-11-23T14:56:29.061Z,99.70
2018-11-23T14:58:57.576Z,99.90
2018-11-23T15:01:26.544Z,99.90
2018-11-23T15:03:55.044Z,99.90
2018-11-23T15:06:24.296Z,99.40
2018-11-23T15:08:52.831Z,97.50
2018-11-23T15:11:21.409Z,97.60
2018-11-23T15:13:49.941Z,96.70
2018-11-23T15:16:18.504Z,98.30
2018-11-23T15:18:47.169Z,98.40
2018-11-23T15:21:16.417Z,98.10
2018-11-23T15:23:45.022Z,97.90
2018-11-23T15:26:13.723Z,99.30
2018-11-23T15:28:42.486Z,98.80
2018-11-23T15:31:11.038Z,98.90
2018-11-23T15:33:39.602Z,97.10
2018-11-23T15:36:08.153Z,94.10
2018-11-23T15:38:36.725Z,93.40
2018-11-23T15:41:05.257Z,95.90
2018-11-23T15:43:33.790Z,97.00
2018-11-23T15:46:02.308Z,97.00
2018-11-23T15:48:30.895Z,97.40
2018-11-23T15:51:03.637Z,95.90
2018-11-23T15:53:32.172Z,94.50
2018-11-23T15:56:00.832Z,94.30
2018-11-23T15:58:29.927Z,97.50
2018-11-23T16:00:58.689Z,96.90
2018-11-23T16:03:27.219Z,97.20
2018-11-23T16:05:55.748Z,97.30
2018-11-23T16:08:24.302Z,98.10
2018-11-23T16:10:52.883Z,96.10
2018-11-23T16:13:21.539Z,96.00
2018-11-23T16:15:50.225Z,95.30
2018-11-23T16:18:18.808Z,96.40
2018-11-23T16:20:47.754Z,98.10
2018-11-23T16:23:18.640Z,97.60
2018-11-23T16:25:47.991Z,96.90
2018-11-23T16:28:16.532Z,95.00
2018-11-23T16:30:46.470Z,94.50
2018-11-23T16:33:16.867Z,95.80
2018-11-23T16:35:45.944Z,95.20
2018-11-23T16:38:16.441Z,93.30
2018-11-23T16:40:49.597Z,92.60
2018-11-23T16:43:18.196Z,95.50
2018-11-23T16:45:47.120Z,96.40
2018-11-23T16:48:16.435Z,96.00
2018-11-23T16:50:45.605Z,96.80
2018-11-23T16:53:14.284Z,94.80
2018-11-23T16:55:42.819Z,94.40
2018-11-23T16:58:13.300Z,96.30
2018-11-23T17:00:44.219Z,97.60
2018-11-23T17:03:15.506Z,96.90
2018-11-23T17:05:45.817Z,97.40
2018-11-23T17:08:14.340Z,99.50
2018-11-23T17:10:42.843Z,99.60
2018-11-23T17:13:11.338Z,96.80
2018-11-23T17:15:39.909Z,96.70
2018-11-23T17:18:08.767Z,97.80
2018-11-23T17:20:37.922Z,97.10
2018-11-23T17:23:08.094Z,96.30
2018-11-23T17:25:36.588Z,98.40
2018-11-23T17:28:06.669Z,99.90
2018-11-23T17:30:36.875Z,97.90
2018-11-23T17:33:05.805Z,98.70
2018-11-23T17:35:34.328Z,96.30
2018-11-23T17:38:03.447Z,97.60
2018-11-23T17:40:34.106Z,96.40
2018-11-23T17:43:02.651Z,95.70
2018-11-23T17:45:32.336Z,94.70
2018-11-23T17:48:01.129Z,96.30
2018-11-23T17:50:31.085Z,97.70
2018-11-23T17:52:59.995Z,99.60
2018-11-23T17:55:28.584Z,99.70
2018-11-23T17:57:57.561Z,99.60
2018-11-23T18:00:27.378Z,99.90
2018-11-23T18:02:56.585Z,97.80
2018-11-23T18:05:25.874Z,96.10
2018-11-23T18:07:54.799Z,95.70
2018-11-23T18:10:25.635Z,98.60
2018-11-23T18:12:55.126Z,99.00
2018-11-23T18:15:25.562Z,99.90
2018-11-23T18:17:55.167Z,99.90
2018-11-23T18:20:24.726Z,98.20
2018-11-23T18:22:54.095Z,98.00
2018-11-23T18:27:46.741Z,97.80
2018-11-23T18:30:15.311Z,99.30
2018-11-23T18:32:43.927Z,98.70
2018-11-23T18:35:13.614Z,98.70
2018-11-23T18:37:42.161Z,97.60
2018-11-23T18:40:11.980Z,97.20
2018-11-23T18:42:40.556Z,99.00
2018-11-23T18:45:12.757Z,99.10
2018-11-23T18:47:42.467Z,99.80
2018-11-23T18:50:14.297Z,99.80
2018-11-23T18:52:43.011Z,99.10
2018-11-23T18:55:18.002Z,99.90
2018-11-23T18:57:41.108Z,99.80
2018-11-23T19:00:11.115Z,99.30
2018-11-23T19:02:39.759Z,99.90
2018-11-23T19:05:13.696Z,99.20
2018-11-23T19:07:42.263Z,99.90
2018-11-23T19:10:12.347Z,99.80
2018-11-23T19:12:40.940Z,99.30
2018-11-23T19:15:14.758Z,98.60
2018-11-23T19:17:43.328Z,97.00
2018-11-23T19:20:19.137Z,97.10
2018-11-23T19:22:48.941Z,98.00
2018-11-23T19:25:17.502Z,98.10
2018-11-23T19:27:46.083Z,99.10
2018-11-23T19:30:18.727Z,98.00
2018-11-23T19:32:47.262Z,99.90
2018-11-23T19:35:16.032Z,99.20
2018-11-23T19:37:44.575Z,99.40
2018-11-23T19:40:14.145Z,99.90
2018-11-23T19:42:43.120Z,98.70
2018-11-23T19:45:15.075Z,99.90
2018-11-23T19:47:43.758Z,99.90
2018-11-23T19:50:17.253Z,99.90
2018-11-23T19:52:46.130Z,99.90
2018-11-23T19:55:15.802Z,99.90
2018-11-23T19:57:44.401Z,97.50
2018-11-23T20:00:16.657Z,99.60
2018-11-23T20:02:45.250Z,99.90
2018-11-23T20:05:13.874Z,99.70
2018-11-23T20:07:42.426Z,99.10
2018-11-23T20:10:14.386Z,98.30
2018-11-23T20:12:43.263Z,99.10
2018-11-23T20:15:15.149Z,99.90
2018-11-23T20:17:43.798Z,99.90
2018-11-23T20:20:13.509Z,99.20
2018-11-23T20:22:42.320Z,97.20
2018-11-23T20:25:13.041Z,99.80
2018-11-23T20:27:41.597Z,99.80
2018-11-23T20:30:15.147Z,99.80
2018-11-23T20:32:43.954Z,99.90
2018-11-23T20:35:14.957Z,99.90
2018-11-23T20:37:43.643Z,99.90
2018-11-23T20:40:14.654Z,99.60
2018-11-23T20:42:43.174Z,98.70
2018-11-23T20:45:12.720Z,99.60
2018-11-23T20:47:41.266Z,99.90
2018-11-23T20:50:11.301Z,99.90
2018-11-23T20:52:39.868Z,99.90
2018-11-23T20:55:10.893Z,99.90
2018-11-23T20:57:39.431Z,99.90
2018-11-23T21:00:14.408Z,99.90
2018-11-23T21:02:43.481Z,99.40
2018-11-23T21:05:13.178Z,99.40
2018-11-23T21:07:41.707Z,99.90
2018-11-23T21:10:20.282Z,99.40
2018-11-23T21:12:44.039Z,99.90
2018-11-23T21:15:15.758Z,99.90
2018-11-23T21:17:44.333Z,99.90
2018-11-23T21:20:12.927Z,99.00
2018-11-23T21:22:41.459Z,99.90
2018-11-23T21:25:11.137Z,99.90
2018-11-23T21:27:39.741Z,99.90
2018-11-23T21:30:11.839Z,99.90
2018-11-23T21:32:40.467Z,99.90
2018-11-23T21:35:09.943Z,99.80
2018-11-23T21:37:38.499Z,99.60
2018-11-23T21:40:11.549Z,97.80
2018-11-23T21:42:40.086Z,96.80
2018-11-23T21:45:16.775Z,98.50
2018-11-23T21:47:45.360Z,98.80
2018-11-23T21:50:24.555Z,99.80
2018-11-23T21:52:45.529Z,99.60
2018-11-23T21:55:15.571Z,98.20
2018-11-23T21:57:44.238Z,97.70
2018-11-23T22:00:14.044Z,97.50
2018-11-23T22:02:42.643Z,99.10
2018-11-23T22:05:11.629Z,99.90
2018-11-23T22:07:40.204Z,99.90
2018-11-23T22:10:15.583Z,99.90
2018-11-23T22:12:44.344Z,99.10
2018-11-23T22:15:17.103Z,98.30
2018-11-23T22:17:45.976Z,99.90
2018-11-23T22:20:15.609Z,99.90
2018-11-23T22:22:44.218Z,99.90
2018-11-23T22:25:13.840Z,99.90
2018-11-23T22:27:42.974Z,99.90
2018-11-23T22:30:28.102Z,99.20
2018-11-23T22:32:56.652Z,99.40
2018-11-23T22:35:25.899Z,98.70
2018-11-23T22:37:54.443Z,98.20
2018-11-23T22:40:23.072Z,99.70
2018-11-23T22:42:53.104Z,99.90
2018-11-23T22:45:21.682Z,99.90
2018-11-23T22:47:50.578Z,99.90
2018-11-23T22:50:21.078Z,99.90
2018-11-23T22:52:49.767Z,99.80
2018-11-23T22:55:19.279Z,99.20
2018-11-23T22:57:47.826Z,99.90
2018-11-23T23:00:30.508Z,99.90
2018-11-23T23:02:59.125Z,98.10
2018-11-23T23:05:27.772Z,97.60
2018-11-23T23:07:56.333Z,97.80
2018-11-23T23:10:25.498Z,96.20
2018-11-23T23:12:54.045Z,97.50
2018-11-23T23:15:23.065Z,96.30
2018-11-23T23:17:51.599Z,97.40
2018-11-23T23:20:21.397Z,98.20
2018-11-23T23:22:49.976Z,99.20
2018-11-23T23:25:18.507Z,99.50
2018-11-23T23:27:47.184Z,99.90
2018-11-23T23:30:17.014Z,99.90
2018-11-23T23:32:46.369Z,99.30
2018-11-23T23:35:15.681Z,97.30
2018-11-23T23:37:44.441Z,98.40
2018-11-23T23:40:15.124Z,98.80
2018-11-23T23:42:43.674Z,99.90
2018-11-23T23:45:13.275Z,99.90
2018-11-23T23:47:41.792Z,99.90
2018-11-23T23:50:15.679Z,97.20
2018-11-23T23:52:44.211Z,99.20
2018-11-23T23:55:12.829Z,99.90
2018-11-23T23:57:42.740Z,99.90
